Madison Heights, VA (24572)

04:18 PM EDT del 01 Settembre 2015 (GMT -0400)
Concord Turnpike | | Change Station
CLOSE
Current Station
Stazione meteo personale
Location: Lynchburg, VA
Altitudine: 543 ft
Stazioni meteo nelle vicinanze

Alt. 543 ft 37.40 °N, 79.11 °W | Updated 3 minutes ago

Parzialmente nuvoloso
Parzialmente nuvoloso
90.3 °F
Sembra 93 °F
N
0.3
Vento Variabile Vento da ESE
Gusts 7.7 mph

Oggi
Massima -- | Minima -- °F
--% Possibilità di precip.
Ieri
Massima -- | Minima -- °F
Precip. -- in
6:46 AM 7:45 PM
Gobba a levante, 86% visible
Pressione 30.05 in
Visibilità 10.0 miglia
Nuvole Alcuni 10000 ft
Indice di calore 93 °F
Punto di rugiada 66 °F
Umidità 44%
Piovosità 0.00 in
Spessore del manto nevoso Non disponibile.
Raggi UV 6 fuori da 12
Polline 9.10 fuori da 12
Qualità dell'aria Non disponibile.
Flu Activity Non disponibile.
METAR KLYH 011954Z 02006KT 10SM FEW100 32/18 A3008 RMK AO2 SLP175 T03220183
Pressione 30.05 in
Visibilità 10.0 miglia
Nuvole Alcuni 10000 ft
Indice di calore 93 °F
Punto di rugiada 66 °F
Umidità 44%
Piovosità 0.00 in
Spessore del manto nevoso Non disponibile.
Raggi UV 6 fuori da 12
Polline 9.10 fuori da 12
Qualità dell'aria Non disponibile.
Flu Activity Non disponibile.
METAR KLYH 011954Z 02006KT 10SM FEW100 32/18 A3008 RMK AO2 SLP175 T03220183

10-Day Weather Forecast

×

Almanac

Astronomia

Sep. 01, 2015 Alba Tramonto
Ora attuale
Crepuscolo civile
Crepuscolo nautico
Crepuscolo astronomico
Luna
Estensione della luce visibile
Lunghezza del giorno
Tomorrow will be .
, % of the Moon is Illuminated

Gli estremi di oggi

State Highs State Lows

Community

WunderPhotos

Upload Photos

1,851,605 foto caricate!

WunderBlogs® & News

Nearby

Qualità dell'aria

  Qualità dell'aria Indice AQ Inquinante
Not available.

Profondità neve

Stazione Profondità Altitudine

Attività sismica

Città  Distanza Mag. Data & Ora
Minimo Magnitudo Mostrato è 2.5.

Temperature delle acque costiere

Località Temperatura

Stations

Stazioni meteo nelle vicinanze

Ubicazione della stazione Temp. Raffreddamento del vento Punto di rugiada Umidità Vento Precip. Alt. Aggiornato Tipo